Time;durP1;ratioP1;P1;durP2;ratioP2;P2;SDS_P1;SDS_P2;PMS_P1;PMS_P2;Temp;Humidity;BMP_temperature;BMP_pressure;BME280_temperature;BME280_humidity;BME280_pressure;Samples;Min_cycle;Max_cycle;Signal;HPM_P1;HPM_P2
2022/09/20 00:01:48;;;;;;;;;;;;;;;14.12;62.01;99501.19;4483805;32;35060;-64
2022/09/20 00:04:15;;;;;;;;;;;;;;;14.57;60.58;99511.31;4470909;31;33966;-64
2022/09/20 00:06:43;;;;;;;;;;;;;;;14.65;60.38;99508.78;4489981;31;33045;-64
2022/09/20 00:09:11;;;;;;;;;;;;;;;14.31;61.17;99503.00;4481632;31;34823;-65
2022/09/20 00:11:38;;;;;;;;;;;;;;;14.11;61.74;99502.19;4484046;31;34127;-64
2022/09/20 00:14:07;;;;;;;;;;;;;;;14.67;60.47;99503.25;4488340;31;34167;-64
2022/09/20 00:16:36;;;;;;;;;;;;;;;14.07;61.84;99495.41;4493057;31;34401;-63
2022/09/20 00:19:04;;;;;;;;;;;;;;;14.45;61.15;99504.41;4488283;31;33791;-64
2022/09/20 00:21:33;;;;;;;;;;;;;;;14.38;60.97;99511.34;4498822;31;35437;-63
2022/09/20 00:24:00;;;;;;;;;;;;;;;14.41;61.31;99500.28;4490296;31;32644;-64
2022/09/20 00:26:28;;;;;;;;;;;;;;;14.21;61.61;99505.72;4491336;31;33471;-65
2022/09/20 00:28:56;;;;;;;;;;;;;;;14.54;60.85;99498.19;4490095;31;34059;-64
2022/09/20 00:31:23;;;;;;;;;;;;;;;14.53;60.58;99501.00;4479577;31;35373;-64
2022/09/20 00:36:40;;;;;;;;;;;;;;;13.58;63.24;99499.94;4484396;31;32070;-64
2022/09/20 00:39:08;;;;;;;;;;;;;;;14.13;61.32;99499.38;4496474;31;33979;-64
2022/09/20 00:41:35;;;;;;;;;;;;;;;13.70;63.01;99493.41;4478970;31;35452;-63
2022/09/20 00:44:23;;;;;;;;;;;;;;;13.83;62.86;99497.66;4481292;31;34190;-64
2022/09/20 00:46:50;;;;;;;;;;;;;;;13.63;63.27;99494.12;4484627;31;33918;-64
2022/09/20 00:49:19;;;;;;;;;;;;;;;14.29;61.17;99496.94;4489593;31;34209;-64
2022/09/20 00:51:47;;;;;;;;;;;;;;;13.57;63.43;99500.06;4499265;31;34479;-65
2022/09/20 00:54:15;;;;;;;;;;;;;;;13.56;63.14;99493.81;4478311;31;34005;-65
2022/09/20 00:56:46;;;;;;;;;;;;;;;13.79;62.43;99498.94;4479581;31;34120;-63
2022/09/20 00:59:14;;;;;;;;;;;;;;;13.94;61.63;99497.53;4483254;31;33805;-64
2022/09/20 01:01:43;;;;;;;;;;;;;;;14.13;60.61;99507.44;4484563;32;34047;-64
2022/09/20 01:04:10;;;;;;;;;;;;;;;14.18;60.25;99507.84;4492333;31;34596;-65
2022/09/20 01:06:37;;;;;;;;;;;;;;;14.26;59.85;99509.84;4478906;31;33315;-62
2022/09/20 01:09:06;;;;;;;;;;;;;;;14.11;60.14;99510.25;4483326;31;34832;-62
2022/09/20 01:11:34;;;;;;;;;;;;;;;14.13;60.21;99513.66;4493141;31;33559;-63
2022/09/20 01:14:01;;;;;;;;;;;;;;;14.16;59.67;99516.06;4482148;32;34222;-63
2022/09/20 01:16:29;;;;;;;;;;;;;;;13.98;60.33;99510.53;4485862;31;33035;-62
2022/09/20 01:18:58;;;;;;;;;;;;;;;14.40;59.01;99510.22;4483899;31;32600;-62
2022/09/20 01:21:25;;;;;;;;;;;;;;;14.20;59.42;99514.78;4482938;31;34216;-68
2022/09/20 01:23:59;;;;;;;;;;;;;;;14.50;58.81;99515.56;4481741;31;32770;-62
2022/09/20 01:26:36;;;;;;;;;;;;;;;14.58;58.51;99515.75;4476692;31;33199;-62
2022/09/20 01:29:27;;;;;;;;;;;;;;;14.56;58.53;99512.34;4484904;31;33367;-61
2022/09/20 01:31:55;;;;;;;;;;;;;;;14.56;58.06;99522.25;4476646;31;33865;-62
2022/09/20 01:34:27;;;;;;;;;;;;;;;14.54;58.63;99517.03;4481284;31;35176;-66
2022/09/20 01:37:14;;;;;;;;;;;;;;;14.37;58.86;99515.88;4481445;31;33158;-64
2022/09/20 01:39:53;;;;;;;;;;;;;;;14.13;59.27;99510.12;4487966;31;33692;-63
2022/09/20 01:42:22;;;;;;;;;;;;;;;13.98;59.89;99517.78;4483523;31;35640;-63
2022/09/20 01:45:00;;;;;;;;;;;;;;;14.29;59.20;99520.31;4482210;31;34053;-63
2022/09/20 01:47:40;;;;;;;;;;;;;;;14.45;58.65;99525.94;4486535;31;33922;-63
2022/09/20 01:50:26;;;;;;;;;;;;;;;14.35;59.31;99525.09;4482272;31;34884;-62
2022/09/20 01:53:11;;;;;;;;;;;;;;;14.11;59.25;99530.94;4491739;31;34268;-63
2022/09/20 01:55:48;;;;;;;;;;;;;;;13.76;60.89;99526.97;4492751;31;34052;-62
2022/09/20 01:58:33;;;;;;;;;;;;;;;14.14;60.19;99523.44;4488352;31;33572;-62
2022/09/20 02:01:19;;;;;;;;;;;;;;;13.91;60.70;99530.09;4481091;31;34020;-62
2022/09/20 02:03:50;;;;;;;;;;;;;;;14.08;60.81;99529.37;4494389;31;32854;-62
2022/09/20 02:06:38;;;;;;;;;;;;;;;14.47;59.22;99526.63;4489090;31;32746;-62
2022/09/20 02:09:24;;;;;;;;;;;;;;;14.47;59.20;99532.03;4484499;31;34297;-62
2022/09/20 02:11:51;;;;;;;;;;;;;;;14.49;59.26;99529.19;4495173;31;33869;-62
2022/09/20 02:14:25;;;;;;;;;;;;;;;14.51;59.15;99538.88;4498489;31;33926;-62
2022/09/20 02:16:54;;;;;;;;;;;;;;;14.50;59.45;99538.97;4476084;31;33818;-63
2022/09/20 02:19:40;;;;;;;;;;;;;;;14.19;59.57;99542.69;4490439;31;34335;-62
2022/09/20 02:22:12;;;;;;;;;;;;;;;14.07;61.17;99554.59;4484217;31;34052;-63
2022/09/20 02:24:42;;;;;;;;;;;;;;;14.25;60.22;99551.19;4488661;31;33866;-62
2022/09/20 02:27:28;;;;;;;;;;;;;;;14.90;57.90;99549.53;4479013;31;33968;-63
2022/09/20 02:30:11;;;;;;;;;;;;;;;14.82;58.12;99549.41;4499026;31;34513;-63
2022/09/20 02:33:08;;;;;;;;;;;;;;;15.06;57.01;99554.31;4484082;31;34967;-63
2022/09/20 02:35:54;;;;;;;;;;;;;;;15.11;57.20;99547.44;4440089;31;33973;-62
2022/09/20 02:38:25;;;;;;;;;;;;;;;15.18;56.75;99546.84;4480311;31;32838;-63
2022/09/20 02:41:00;;;;;;;;;;;;;;;15.03;57.37;99543.81;4468558;31;32066;-63
2022/09/20 02:43:28;;;;;;;;;;;;;;;15.39;56.00;99544.78;4482906;31;34272;-63
2022/09/20 02:46:00;;;;;;;;;;;;;;;15.26;56.36;99542.44;4497626;31;32934;-63
2022/09/20 02:48:37;;;;;;;;;;;;;;;15.13;56.69;99542.78;4481734;31;33423;-63
2022/09/20 02:51:21;;;;;;;;;;;;;;;15.26;55.94;99549.66;4475661;31;33482;-63
2022/09/20 02:53:53;;;;;;;;;;;;;;;15.22;56.39;99553.66;4469598;32;34439;-63
2022/09/20 02:56:24;;;;;;;;;;;;;;;15.42;55.00;99554.41;4486053;31;33976;-62
2022/09/20 02:59:01;;;;;;;;;;;;;;;15.37;55.86;99552.16;4478742;31;34085;-62
2022/09/20 03:01:41;;;;;;;;;;;;;;;15.52;54.92;99564.13;4489178;31;33388;-65
2022/09/20 03:04:14;;;;;;;;;;;;;;;15.53;55.30;99562.28;4465088;32;34367;-65
2022/09/20 03:06:43;;;;;;;;;;;;;;;15.17;56.48;99566.72;4488054;31;35868;-62
2022/09/20 03:09:29;;;;;;;;;;;;;;;15.39;55.74;99574.44;4478652;31;33711;-63
2022/09/20 03:12:02;;;;;;;;;;;;;;;15.51;55.18;99565.16;4475159;31;32975;-64
2022/09/20 03:14:32;;;;;;;;;;;;;;;15.35;55.98;99581.97;4478770;31;34026;-62
2022/09/20 03:17:05;;;;;;;;;;;;;;;15.40;55.50;99577.97;4490582;31;34586;-64
2022/09/20 03:19:42;;;;;;;;;;;;;;;15.30;56.25;99569.94;4486026;31;32988;-64
2022/09/20 03:22:16;;;;;;;;;;;;;;;15.21;56.46;99573.53;4481600;31;33508;-63
2022/09/20 03:25:02;;;;;;;;;;;;;;;15.52;55.53;99577.62;4487286;31;35271;-62
2022/09/20 03:27:38;;;;;;;;;;;;;;;15.38;56.31;99576.28;4489831;31;34114;-62
2022/09/20 03:30:25;;;;;;;;;;;;;;;15.55;56.34;99571.94;4480116;31;34048;-62
2022/09/20 03:32:58;;;;;;;;;;;;;;;15.35;57.07;99564.97;4493799;31;33129;-65
2022/09/20 03:35:44;;;;;;;;;;;;;;;15.49;56.18;99571.69;4493568;31;35274;-63
2022/09/20 03:38:20;;;;;;;;;;;;;;;15.65;55.39;99562.94;4482711;31;35382;-63
2022/09/20 03:41:04;;;;;;;;;;;;;;;15.57;55.26;99569.94;4488883;31;34106;-64
2022/09/20 03:43:51;;;;;;;;;;;;;;;15.31;55.87;99568.94;4498448;31;32855;-64
2022/09/20 03:46:21;;;;;;;;;;;;;;;15.04;56.82;99573.31;4484240;31;32385;-63
2022/09/20 03:48:54;;;;;;;;;;;;;;;15.36;55.86;99570.19;4492943;31;34767;-63
2022/09/20 03:51:28;;;;;;;;;;;;;;;15.63;55.23;99565.78;4481547;31;33926;-64
2022/09/20 03:54:19;;;;;;;;;;;;;;;15.59;55.68;99564.38;4469665;31;34392;-63
2022/09/20 03:56:47;;;;;;;;;;;;;;;15.67;54.91;99569.06;4491725;31;33961;-65
2022/09/20 03:59:21;;;;;;;;;;;;;;;15.56;54.40;99562.00;4485634;31;34841;-65
2022/09/20 04:02:02;;;;;;;;;;;;;;;15.53;54.31;99562.28;4485038;31;34104;-64
2022/09/20 04:04:33;;;;;;;;;;;;;;;15.53;54.17;99563.12;4468813;31;31999;-64
2022/09/20 04:07:01;;;;;;;;;;;;;;;15.40;54.12;99556.41;4482500;31;33160;-65
2022/09/20 04:09:47;;;;;;;;;;;;;;;15.44;53.78;99558.66;4489281;31;34222;-64
2022/09/20 04:12:14;;;;;;;;;;;;;;;15.33;54.39;99562.41;4483839;31;35244;-65
2022/09/20 04:14:44;;;;;;;;;;;;;;;14.62;56.14;99570.16;4489339;31;35055;-64
2022/09/20 04:17:30;;;;;;;;;;;;;;;14.99;54.74;99566.66;4474095;31;32639;-64
2022/09/20 04:20:20;;;;;;;;;;;;;;;15.05;54.50;99574.16;4485647;31;34310;-64
2022/09/20 04:22:49;;;;;;;;;;;;;;;14.72;55.21;99580.91;4475692;31;34107;-64
2022/09/20 04:25:19;;;;;;;;;;;;;;;14.74;55.06;99584.34;4494587;31;31827;-64
2022/09/20 04:28:06;;;;;;;;;;;;;;;14.52;55.88;99582.81;4476451;31;32503;-65
2022/09/20 04:30:36;;;;;;;;;;;;;;;14.63;55.14;99585.31;4488206;31;34423;-65
2022/09/20 04:33:03;;;;;;;;;;;;;;;14.31;55.81;99580.22;4483818;31;33839;-64
2022/09/20 04:38:20;;;;;;;;;;;;;;;14.32;56.52;99576.56;4493087;31;34614;-64
2022/09/20 04:40:59;;;;;;;;;;;;;;;14.33;56.24;99578.25;4496670;31;35239;-65
2022/09/20 04:43:31;;;;;;;;;;;;;;;14.28;56.32;99573.28;4483219;31;33986;-65
2022/09/20 04:46:01;;;;;;;;;;;;;;;14.07;57.64;99578.81;4485339;31;33851;-64
2022/09/20 04:48:48;;;;;;;;;;;;;;;14.34;57.09;99574.56;4487932;31;32975;-64
2022/09/20 04:51:18;;;;;;;;;;;;;;;13.90;58.31;99582.19;4477429;31;34352;-64
2022/09/20 04:53:52;;;;;;;;;;;;;;;13.77;58.80;99585.12;4488008;31;33642;-68
2022/09/20 04:56:34;;;;;;;;;;;;;;;13.73;59.33;99581.87;4486224;31;31874;-65
2022/09/20 04:59:06;;;;;;;;;;;;;;;13.82;59.11;99580.22;4484835;31;34147;-64
2022/09/20 05:01:54;;;;;;;;;;;;;;;13.89;59.04;99581.34;4487000;31;33806;-64
2022/09/20 05:04:22;;;;;;;;;;;;;;;14.21;58.23;99586.47;4491319;31;33894;-64
2022/09/20 05:06:52;;;;;;;;;;;;;;;14.20;57.86;99586.62;4484420;31;33110;-64
2022/09/20 05:09:45;;;;;;;;;;;;;;;14.56;57.28;99589.59;4482007;31;34615;-64
2022/09/20 05:12:33;;;;;;;;;;;;;;;14.97;56.33;99585.69;4483666;31;34475;-64
2022/09/20 05:15:27;;;;;;;;;;;;;;;15.17;55.50;99582.91;4484733;31;34905;-64
2022/09/20 05:18:06;;;;;;;;;;;;;;;15.14;55.21;99600.22;4487117;31;34476;-65
2022/09/20 05:20:51;;;;;;;;;;;;;;;15.04;54.74;99605.66;4483326;31;33003;-64
2022/09/20 05:23:24;;;;;;;;;;;;;;;15.28;53.83;99606.97;4481667;31;35330;-64
2022/09/20 05:25:55;;;;;;;;;;;;;;;15.32;54.05;99613.78;4481905;31;34421;-65
2022/09/20 05:28:24;;;;;;;;;;;;;;;15.49;53.48;99610.28;4484391;31;33519;-64
2022/09/20 05:30:54;;;;;;;;;;;;;;;15.34;54.10;99615.34;4469752;32;33670;-65
2022/09/20 05:33:40;;;;;;;;;;;;;;;15.42;54.05;99619.13;4471453;31;35361;-64
2022/09/20 05:36:16;;;;;;;;;;;;;;;15.19;54.47;99624.91;4485821;32;34935;-63
2022/09/20 05:38:44;;;;;;;;;;;;;;;15.21;54.80;99624.75;4471944;31;33537;-66
2022/09/20 05:41:17;;;;;;;;;;;;;;;15.13;54.93;99620.09;4499256;31;32993;-63
2022/09/20 05:43:50;;;;;;;;;;;;;;;15.08;54.79;99627.75;4490556;31;34303;-62
2022/09/20 05:46:54;;;;;;;;;;;;;;;14.81;56.73;99636.63;4484876;31;34896;-63
2022/09/20 05:49:39;;;;;;;;;;;;;;;14.19;58.42;99636.06;4428539;32;33004;-63
2022/09/20 05:52:19;;;;;;;;;;;;;;;14.89;57.52;99634.94;4481409;31;35107;-62
2022/09/20 05:54:50;;;;;;;;;;;;;;;14.75;58.40;99621.03;4473855;32;34178;-63
2022/09/20 05:57:50;;;;;;;;;;;;;;;14.20;59.59;99621.59;4492559;31;33074;-63
2022/09/20 06:00:23;;;;;;;;;;;;;;;14.56;59.79;99624.59;4463854;31;31970;-63
2022/09/20 06:02:52;;;;;;;;;;;;;;;14.74;58.95;99624.75;4482424;32;34058;-63
2022/09/20 06:05:39;;;;;;;;;;;;;;;14.78;59.15;99626.16;4492721;31;33415;-63
2022/09/20 06:08:25;;;;;;;;;;;;;;;14.94;58.70;99630.94;4491697;31;35165;-63
2022/09/20 06:10:59;;;;;;;;;;;;;;;15.32;58.28;99620.03;4489151;31;32649;-63
2022/09/20 06:13:31;;;;;;;;;;;;;;;15.44;58.00;99630.63;4483760;31;32795;-63
2022/09/20 06:15:59;;;;;;;;;;;;;;;15.73;56.21;99631.38;4472037;32;32983;-63
2022/09/20 06:18:42;;;;;;;;;;;;;;;16.13;56.26;99623.88;4490981;31;35258;-64
2022/09/20 06:21:24;;;;;;;;;;;;;;;16.42;55.32;99635.28;4485851;32;33766;-64
2022/09/20 06:23:55;;;;;;;;;;;;;;;16.17;55.44;99638.75;4485937;31;32978;-64
2022/09/20 06:26:23;;;;;;;;;;;;;;;17.91;50.01;99634.25;4487702;31;34325;-64
2022/09/20 06:28:52;;;;;;;;;;;;;;;17.84;49.00;99629.63;4496812;31;33003;-64
2022/09/20 06:31:25;;;;;;;;;;;;;;;17.37;50.28;99646.34;4483304;31;33194;-64
2022/09/20 06:33:52;;;;;;;;;;;;;;;16.50;53.22;99648.00;4485392;31;32302;-64
2022/09/20 06:42:10;;;;;;;;;;;;;;;16.68;53.22;99637.19;4485463;32;34474;-64
2022/09/20 06:44:40;;;;;;;;;;;;;;;16.06;55.03;99643.37;4485058;31;34138;-64
2022/09/20 06:47:10;;;;;;;;;;;;;;;16.45;53.40;99643.09;4487223;31;34105;-64
2022/09/20 06:49:41;;;;;;;;;;;;;;;16.35;53.39;99644.19;4477458;31;32677;-63
2022/09/20 06:52:12;;;;;;;;;;;;;;;16.43;53.70;99644.25;4487281;31;32341;-64
2022/09/20 06:54:42;;;;;;;;;;;;;;;16.41;53.65;99647.09;4473918;31;33200;-64
2022/09/20 06:57:09;;;;;;;;;;;;;;;16.35;53.94;99647.72;4476792;31;34080;-63
2022/09/20 06:59:37;;;;;;;;;;;;;;;15.77;55.58;99637.31;4498503;31;35333;-63
2022/09/20 07:02:04;;;;;;;;;;;;;;;15.93;54.72;99642.06;4483776;31;33013;-63
2022/09/20 07:04:32;;;;;;;;;;;;;;;15.89;54.79;99638.81;4488642;31;34331;-63
2022/09/20 07:07:00;;;;;;;;;;;;;;;15.20;56.95;99642.78;4490991;31;33619;-63
2022/09/20 07:09:32;;;;;;;;;;;;;;;15.34;55.85;99642.31;4485543;32;34294;-63
2022/09/20 07:11:59;;;;;;;;;;;;;;;15.02;57.89;99650.75;4497894;31;34541;-64
2022/09/20 07:14:27;;;;;;;;;;;;;;;15.56;55.86;99649.16;4484732;31;32913;-63
2022/09/20 07:16:54;;;;;;;;;;;;;;;14.70;59.88;99650.25;4491249;31;35619;-62
2022/09/20 07:19:22;;;;;;;;;;;;;;;14.87;58.27;99652.22;4493981;31;34240;-63
2022/09/20 07:21:49;;;;;;;;;;;;;;;14.59;58.61;99656.66;4476572;31;31414;-63
2022/09/20 07:24:17;;;;;;;;;;;;;;;14.51;59.69;99653.78;4491736;31;34006;-63
2022/09/20 07:26:54;;;;;;;;;;;;;;;15.41;58.46;99653.34;4491616;31;34122;-63
2022/09/20 07:29:21;;;;;;;;;;;;;;;14.78;57.88;99663.88;4485151;31;35310;-63
2022/09/20 07:31:49;;;;;;;;;;;;;;;14.36;59.48;99662.28;4458808;31;814034;-63
2022/09/20 07:34:19;;;;;;;;;;;;;;;14.36;59.99;99670.34;4485685;31;34297;-63
2022/09/20 07:36:47;;;;;;;;;;;;;;;14.27;61.48;99670.34;4471828;32;32871;-63
2022/09/20 07:39:14;;;;;;;;;;;;;;;13.93;61.83;99673.37;4484886;31;33708;-63
2022/09/20 07:41:45;;;;;;;;;;;;;;;14.12;62.16;99673.44;4492827;31;32065;-63
2022/09/20 07:44:26;;;;;;;;;;;;;;;14.15;62.19;99678.53;4492677;31;33839;-63
2022/09/20 07:46:56;;;;;;;;;;;;;;;14.33;62.02;99680.56;4493194;31;34390;-63
2022/09/20 07:49:24;;;;;;;;;;;;;;;14.74;61.09;99678.63;4501008;31;32965;-63
2022/09/20 07:51:52;;;;;;;;;;;;;;;14.60;60.42;99683.41;4496775;31;33166;-64
2022/09/20 07:54:19;;;;;;;;;;;;;;;14.70;58.90;99672.63;4493129;31;33983;-63
2022/09/20 07:56:47;;;;;;;;;;;;;;;14.54;59.00;99684.00;4486121;31;35539;-63
2022/09/20 07:59:14;;;;;;;;;;;;;;;14.60;59.64;99686.13;4485948;31;33701;-62
2022/09/20 08:01:42;;;;;;;;;;;;;;;14.64;59.33;99679.47;4485118;31;33587;-64
2022/09/20 08:04:09;;;;;;;;;;;;;;;14.45;60.65;99672.22;4488796;31;34135;-64
2022/09/20 08:06:37;;;;;;;;;;;;;;;14.57;60.61;99675.63;4483724;31;33091;-64
2022/09/20 08:09:05;;;;;;;;;;;;;;;15.03;58.89;99668.66;4483630;31;33815;-63
2022/09/20 08:11:38;;;;;;;;;;;;;;;14.98;58.48;99675.47;4488831;31;32171;-63
2022/09/20 08:14:06;;;;;;;;;;;;;;;15.23;57.75;99682.06;4484645;31;34960;-64
2022/09/20 08:16:39;;;;;;;;;;;;;;;15.17;56.91;99683.50;4494546;31;35407;-64
2022/09/20 08:19:06;;;;;;;;;;;;;;;15.06;59.87;99678.28;4500917;31;32810;-64
2022/09/20 08:21:34;;;;;;;;;;;;;;;15.48;58.92;99683.28;4492606;31;31956;-64
2022/09/20 08:24:02;;;;;;;;;;;;;;;15.00;57.65;99681.56;4489260;31;32918;-63
2022/09/20 08:26:30;;;;;;;;;;;;;;;15.31;57.59;99684.88;4483889;31;34197;-64
2022/09/20 08:28:58;;;;;;;;;;;;;;;15.80;55.83;99683.72;4494189;31;34045;-64
2022/09/20 08:31:26;;;;;;;;;;;;;;;15.63;56.37;99684.47;4485429;31;33027;-63
2022/09/20 08:33:54;;;;;;;;;;;;;;;15.49;56.52;99677.72;4488687;31;34121;-64
2022/09/20 08:36:23;;;;;;;;;;;;;;;14.83;58.98;99675.03;4496467;31;34207;-64
2022/09/20 08:38:51;;;;;;;;;;;;;;;14.72;58.85;99677.91;4497989;31;35206;-64
2022/09/20 08:41:43;;;;;;;;;;;;;;;14.99;58.85;99678.03;4485477;31;34321;-64
2022/09/20 08:44:13;;;;;;;;;;;;;;;15.66;57.60;99680.63;4485130;31;35277;-64
2022/09/20 08:46:43;;;;;;;;;;;;;;;16.12;55.04;99681.59;4490729;31;32839;-64
2022/09/20 08:49:12;;;;;;;;;;;;;;;16.03;55.06;99686.88;4469778;32;34206;-64
2022/09/20 08:51:39;;;;;;;;;;;;;;;15.64;56.98;99696.16;4469638;31;32979;-65
2022/09/20 08:54:09;;;;;;;;;;;;;;;15.27;56.09;99691.56;4485054;31;34155;-64
2022/09/20 08:56:37;;;;;;;;;;;;;;;15.50;56.04;99689.34;4476988;31;33356;-64
2022/09/20 08:59:05;;;;;;;;;;;;;;;15.28;58.12;99693.25;4483807;31;34442;-64
2022/09/20 09:01:32;;;;;;;;;;;;;;;16.13;55.02;99694.06;4473391;31;33125;-64
2022/09/20 09:04:03;;;;;;;;;;;;;;;16.15;55.62;99692.09;4490436;31;34272;-63
2022/09/20 09:06:31;;;;;;;;;;;;;;;15.82;56.61;99687.13;4477252;32;35322;-63
2022/09/20 09:08:58;;;;;;;;;;;;;;;15.35;55.61;99689.00;4493801;31;32708;-65
2022/09/20 09:11:26;;;;;;;;;;;;;;;15.82;54.35;99691.66;4497875;31;32197;-64
2022/09/20 09:14:00;;;;;;;;;;;;;;;15.75;55.22;99685.19;4486519;31;32691;-65
2022/09/20 09:16:30;;;;;;;;;;;;;;;15.70;56.59;99687.50;4498710;31;32932;-63
2022/09/20 09:19:24;;;;;;;;;;;;;;;15.95;54.19;99681.37;4485022;31;32400;-63
2022/09/20 09:21:55;;;;;;;;;;;;;;;15.63;55.29;99687.16;4494909;31;33190;-63
2022/09/20 09:24:22;;;;;;;;;;;;;;;15.57;55.77;99687.78;4476990;32;32872;-64
2022/09/20 09:26:51;;;;;;;;;;;;;;;15.49;56.62;99683.13;4488749;31;34108;-64
2022/09/20 09:29:19;;;;;;;;;;;;;;;15.42;57.29;99673.09;4486669;31;33976;-64
2022/09/20 09:31:48;;;;;;;;;;;;;;;15.25;57.06;99683.63;4491302;31;33316;-64
2022/09/20 09:34:28;;;;;;;;;;;;;;;16.06;54.75;99680.31;4480301;31;35536;-63
2022/09/20 09:36:56;;;;;;;;;;;;;;;16.11;55.51;99685.25;4498870;31;32933;-64
2022/09/20 09:39:24;;;;;;;;;;;;;;;16.10;54.50;99684.41;4476305;31;35482;-64
2022/09/20 09:41:51;;;;;;;;;;;;;;;15.76;53.90;99676.06;4487737;31;34564;-64
2022/09/20 09:44:19;;;;;;;;;;;;;;;16.02;53.68;99682.47;4482096;31;34419;-63
2022/09/20 09:46:49;;;;;;;;;;;;;;;16.27;53.26;99685.44;4489371;31;34295;-65
2022/09/20 09:49:16;;;;;;;;;;;;;;;16.59;52.62;99689.47;4477007;31;33754;-64
2022/09/20 09:52:02;;;;;;;;;;;;;;;15.94;54.22;99673.44;4491339;31;34126;-63
2022/09/20 09:54:36;;;;;;;;;;;;;;;15.89;52.74;99682.00;4486603;31;32812;-63
2022/09/20 09:57:22;;;;;;;;;;;;;;;15.82;53.48;99676.31;4471344;32;34284;-64
2022/09/20 10:00:04;;;;;;;;;;;;;;;15.47;56.28;99674.31;4491456;31;34284;-64
2022/09/20 10:02:52;;;;;;;;;;;;;;;16.05;54.18;99666.00;4493104;31;33935;-64
2022/09/20 10:05:21;;;;;;;;;;;;;;;16.48;53.56;99669.78;4481226;31;33907;-63
2022/09/20 10:07:50;;;;;;;;;;;;;;;16.57;51.39;99669.88;4471635;32;33914;-63
2022/09/20 10:10:34;;;;;;;;;;;;;;;17.19;50.07;99670.72;4485751;31;34186;-64
2022/09/20 10:13:02;;;;;;;;;;;;;;;17.57;49.59;99680.25;4473402;31;33202;-63
2022/09/20 10:15:32;;;;;;;;;;;;;;;16.66;50.05;99677.03;4488015;31;34061;-62
2022/09/20 10:18:03;;;;;;;;;;;;;;;16.62;50.35;99678.34;4485769;31;35500;-65
2022/09/20 10:20:32;;;;;;;;;;;;;;;17.10;49.52;99682.50;4476012;31;33517;-64
2022/09/20 10:23:00;;;;;;;;;;;;;;;16.66;50.14;99677.91;4485444;32;34096;-63
2022/09/20 10:25:51;;;;;;;;;;;;;;;16.89;49.68;99681.00;4494747;31;34017;-63
2022/09/20 10:28:47;;;;;;;;;;;;;;;16.82;49.59;99676.34;4483271;31;34263;-63
2022/09/20 10:31:36;;;;;;;;;;;;;;;17.00;48.16;99672.63;4496481;31;33999;-63
2022/09/20 10:34:15;;;;;;;;;;;;;;;17.20;49.80;99672.41;4485090;31;33157;-63
2022/09/20 10:36:46;;;;;;;;;;;;;;;17.02;49.64;99668.94;4487606;31;34274;-65
2022/09/20 10:39:16;;;;;;;;;;;;;;;17.12;49.88;99664.25;4488192;31;34126;-64
2022/09/20 10:44:54;;;;;;;;;;;;;;;17.31;48.16;99652.38;4484802;31;31974;-64
2022/09/20 10:47:24;;;;;;;;;;;;;;;17.47;48.19;99649.78;4482546;31;34084;-63
2022/09/20 10:49:57;;;;;;;;;;;;;;;18.05;47.78;99642.75;4480957;31;32920;-63
2022/09/20 10:52:25;;;;;;;;;;;;;;;18.21;47.24;99655.50;4487040;31;32773;-67
2022/09/20 10:55:02;;;;;;;;;;;;;;;17.53;48.04;99659.94;4488153;31;32711;-63
2022/09/20 10:57:30;;;;;;;;;;;;;;;17.55;49.89;99668.72;4493060;31;34900;-64
2022/09/20 11:00:00;;;;;;;;;;;;;;;18.02;49.76;99668.28;4498087;31;35414;-63
2022/09/20 11:02:37;;;;;;;;;;;;;;;17.67;50.09;99672.00;4471079;31;32443;-64
2022/09/20 11:05:15;;;;;;;;;;;;;;;17.45;51.37;99670.72;4483490;31;34464;-64
2022/09/20 11:07:57;;;;;;;;;;;;;;;17.45;51.04;99670.72;4483536;31;33691;-64
2022/09/20 11:10:35;;;;;;;;;;;;;;;17.77;50.53;99667.34;4471572;32;34228;-64
2022/09/20 11:13:05;;;;;;;;;;;;;;;18.23;49.75;99670.53;4477082;31;33866;-64
2022/09/20 11:15:42;;;;;;;;;;;;;;;17.75;51.57;99671.19;4490033;31;33095;-64
2022/09/20 11:18:12;;;;;;;;;;;;;;;17.88;52.92;99675.19;4483425;31;34171;-64
2022/09/20 11:20:47;;;;;;;;;;;;;;;17.99;52.85;99668.63;4492786;31;33020;-64
2022/09/20 11:23:16;;;;;;;;;;;;;;;18.00;53.55;99664.88;4482958;31;33032;-65
2022/09/20 11:25:45;;;;;;;;;;;;;;;17.90;53.80;99659.63;4485274;31;32333;-65
2022/09/20 11:28:12;;;;;;;;;;;;;;;18.18;52.99;99663.94;4474362;31;34147;-62
2022/09/20 11:30:42;;;;;;;;;;;;;;;18.03;52.29;99656.44;4488837;31;35524;-63
2022/09/20 11:33:24;;;;;;;;;;;;;;;17.91;52.50;99655.03;4472521;31;34536;-63
2022/09/20 11:35:52;;;;;;;;;;;;;;;17.51;52.67;99653.00;4492529;31;34791;-63
2022/09/20 11:38:26;;;;;;;;;;;;;;;18.15;51.86;99646.16;4461814;32;33366;-62
2022/09/20 11:41:12;;;;;;;;;;;;;;;17.46;52.69;99640.81;4481782;31;34100;-63
2022/09/20 11:43:41;;;;;;;;;;;;;;;16.54;53.37;99646.72;4487105;31;34096;-62
2022/09/20 11:46:09;;;;;;;;;;;;;;;17.17;51.43;99642.97;4474378;32;33439;-62
2022/09/20 11:48:48;;;;;;;;;;;;;;;16.59;52.83;99641.69;4471197;31;32905;-62
2022/09/20 11:51:34;;;;;;;;;;;;;;;17.40;51.08;99640.59;4476802;31;33352;-63
2022/09/20 11:54:21;;;;;;;;;;;;;;;17.50;50.49;99632.38;4471638;31;31525;-63
2022/09/20 11:56:50;;;;;;;;;;;;;;;17.43;49.69;99635.72;4483272;31;32136;-64
2022/09/20 11:59:36;;;;;;;;;;;;;;;17.34;50.37;99625.84;4481699;31;35241;-63
2022/09/20 12:02:12;;;;;;;;;;;;;;;17.32;49.64;99633.28;4494052;31;33007;-63
2022/09/20 12:04:42;;;;;;;;;;;;;;;17.25;51.22;99629.53;4485437;31;34102;-61
2022/09/20 12:07:17;;;;;;;;;;;;;;;17.50;50.87;99625.09;4469500;31;34170;-63
2022/09/20 12:09:45;;;;;;;;;;;;;;;17.64;52.27;99621.75;4482486;31;34166;-63
2022/09/20 12:12:49;;;;;;;;;;;;;;;17.26;52.57;99628.50;4471271;31;34713;-63
2022/09/20 12:15:20;;;;;;;;;;;;;;;17.73;50.76;99619.94;4427209;32;35236;-64
2022/09/20 12:17:48;;;;;;;;;;;;;;;17.90;50.44;99626.28;4479829;31;34375;-63
2022/09/20 12:20:34;;;;;;;;;;;;;;;18.11;47.76;99615.84;4491847;31;35239;-63
2022/09/20 12:23:20;;;;;;;;;;;;;;;18.24;47.45;99614.53;4487510;31;34884;-64
2022/09/20 12:26:03;;;;;;;;;;;;;;;18.15;47.85;99619.91;4480365;31;35175;-63
2022/09/20 12:28:50;;;;;;;;;;;;;;;18.24;47.79;99604.53;4486721;31;32006;-63
2022/09/20 12:31:20;;;;;;;;;;;;;;;17.52;49.46;99617.63;4480109;31;34160;-62
2022/09/20 12:33:58;;;;;;;;;;;;;;;17.81;48.59;99621.84;4482946;31;34335;-63
2022/09/20 12:36:34;;;;;;;;;;;;;;;17.76;49.93;99613.34;4484541;31;33870;-63
2022/09/20 12:39:14;;;;;;;;;;;;;;;17.76;50.20;99619.63;4490278;31;34339;-63
2022/09/20 12:42:03;;;;;;;;;;;;;;;17.85;47.84;99613.25;4476500;31;35261;-63
2022/09/20 12:44:44;;;;;;;;;;;;;;;18.44;46.50;99615.03;4489444;31;32892;-63
2022/09/20 12:47:11;;;;;;;;;;;;;;;17.64;48.44;99610.94;4483539;31;34341;-64
2022/09/20 12:55:29;;;;;;;;;;;;;;;18.06;47.03;99618.19;4487894;31;35397;-61
2022/09/20 12:57:57;;;;;;;;;;;;;;;16.68;51.15;99627.22;4489580;31;34121;-61
2022/09/20 13:00:35;;;;;;;;;;;;;;;17.55;50.30;99624.59;4500776;31;31675;-61
2022/09/20 13:03:20;;;;;;;;;;;;;;;16.88;50.94;99629.78;4478522;31;33612;-61
2022/09/20 13:06:11;;;;;;;;;;;;;;;17.51;49.34;99624.06;4493288;31;33609;-62
2022/09/20 13:08:57;;;;;;;;;;;;;;;17.04;49.30;99612.81;4489423;31;34274;-61
2022/09/20 13:11:44;;;;;;;;;;;;;;;17.40;47.59;99605.44;4497115;31;33313;-62
2022/09/20 13:14:11;;;;;;;;;;;;;;;17.13;47.70;99617.28;4471539;31;33492;-62
2022/09/20 13:16:44;;;;;;;;;;;;;;;17.26;47.59;99612.28;4475328;31;33004;-61
2022/09/20 13:19:16;;;;;;;;;;;;;;;17.96;46.45;99616.66;4475918;32;34083;-62
2022/09/20 13:21:59;;;;;;;;;;;;;;;17.08;49.67;99620.47;4487867;31;33207;-62
2022/09/20 13:24:27;;;;;;;;;;;;;;;16.76;51.31;99626.50;4477861;31;32452;-62
2022/09/20 13:26:59;;;;;;;;;;;;;;;17.14;50.17;99610.84;4482978;31;35112;-61
2022/09/20 13:29:29;;;;;;;;;;;;;;;17.20;50.47;99619.16;4488682;31;34990;-62
2022/09/20 13:32:13;;;;;;;;;;;;;;;17.30;50.62;99610.94;4487982;31;33384;-61
2022/09/20 13:34:40;;;;;;;;;;;;;;;17.49;49.69;99611.72;4487569;31;34563;-61
2022/09/20 13:37:14;;;;;;;;;;;;;;;17.26;51.68;99606.88;4487048;31;34456;-61
2022/09/20 13:39:41;;;;;;;;;;;;;;;16.92;52.64;99607.69;4491029;31;35136;-61
2022/09/20 13:42:11;;;;;;;;;;;;;;;16.67;51.82;99603.09;4474803;31;34085;-62
2022/09/20 13:44:38;;;;;;;;;;;;;;;17.14;50.59;99594.63;4479988;31;35144;-61